Schneifelwetter: Wetterstation Hallschlag, 537 m . NN
Wetterdaten: Montag, 27.10.2008
Datum Zeit Temp. A. Temp. 2 Feuchte A. Luftdruck Regen Wind Richtung Richtung Sonnenschein Helligkeit T Regen Taupunkt Windchill
27.10.2008 00:08 8,3 C 8,2 C 97 % 1012 hPa 0,6 l/m 28,1 km/h (4 Bft) W-SW45 250 0 min 0 lux 15,00 min 7,9 C -1,3 C
27.10.2008 00:23 8,3 C 8,1 C 97 % 1011 hPa 0,0 l/m 24,0 km/h (4 Bft) SW45 225 0 min 0 lux 0,00 min 7,9 C -0,2 C
27.10.2008 00:38 8,3 C 8,2 C 98 % 1011 hPa 0,0 l/m 26,1 km/h (4 Bft) W-SW45 245 0 min 0 lux 0,00 min 8,0 C -0,8 C
27.10.2008 00:53 8,3 C 8,2 C 98 % 1011 hPa 0,0 l/m 31,0 km/h (5 Bft) W-SW67.5 245 0 min 0 lux 0,00 min 8,0 C -2,0 C
27.10.2008 01:08 8,2 C 8,2 C 98 % 1011 hPa 0,0 l/m 24,5 km/h (4 Bft) W-SW45 250 0 min 0 lux 0,00 min 7,9 C -0,5 C
27.10.2008 01:23 8,2 C 8,2 C 98 % 1011 hPa 0,0 l/m 25,3 km/h (4 Bft) W-SW22.5 250 0 min 0 lux 0,00 min 7,9 C -0,7 C
27.10.2008 01:38 8,3 C 8,2 C 98 % 1011 hPa 0,3 l/m 26,6 km/h (4 Bft) W22.5 260 0 min 0 lux 15,00 min 8,0 C -0,9 C
27.10.2008 01:53 8,2 C 8,2 C 98 % 1010 hPa 0,0 l/m 24,6 km/h (4 Bft) W45 260 0 min 0 lux 0,00 min 7,9 C -0,5 C
27.10.2008 02:08 8,2 C 8,2 C 98 % 1010 hPa 0,0 l/m 24,3 km/h (4 Bft) W22.5 265 0 min 0 lux 0,00 min 7,9 C -0,4 C
27.10.2008 02:23 8,2 C 8,1 C 98 % 1010 hPa 0,0 l/m 21,1 km/h (4 Bft) W22.5 265 0 min 0 lux 0,00 min 7,9 C 0,6 C
27.10.2008 02:38 8,1 C 8,0 C 98 % 1010 hPa 0,0 l/m 21,1 km/h (4 Bft) W22.5 260 0 min 0 lux 0,00 min 7,8 C 0,5 C
27.10.2008 02:53 8,1 C 7,9 C 98 % 1010 hPa 0,0 l/m 20,0 km/h (4 Bft) W22.5 260 0 min 0 lux 0,00 min 7,8 C 0,8 C
27.10.2008 03:08 8,0 C 7,8 C 98 % 1009 hPa 0,0 l/m 15,0 km/h (3 Bft) W-SW22.5 250 0 min 0 lux 0,00 min 7,7 C 2,7 C
27.10.2008 03:24 7,9 C 7,8 C 98 % 1009 hPa 0,0 l/m 12,1 km/h (2 Bft) W22.5 260 0 min 0 lux 0,00 min 7,6 C 4,0 C
27.10.2008 03:39 7,9 C 7,7 C 98 % 1009 hPa 0,0 l/m 11,3 km/h (2 Bft) W-SW45 250 0 min 0 lux 0,00 min 7,6 C 4,5 C
27.10.2008 03:54 7,8 C 7,5 C 97 % 1009 hPa 2,4 l/m 9,5 km/h (2 Bft) W45 270 0 min 0 lux 15,00 min 7,4 C 5,5 C
27.10.2008 04:09 7,7 C 7,5 C 97 % 1009 hPa 0,3 l/m 18,8 km/h (3 Bft) SW45 230 0 min 0 lux 15,00 min 7,3 C 0,8 C
27.10.2008 04:24 7,7 C 7,5 C 97 % 1009 hPa 0,3 l/m 14,3 km/h (3 Bft) W-SW22.5 240 0 min 0 lux 15,00 min 7,3 C 2,7 C
27.10.2008 04:39 7,7 C 7,5 C 97 % 1009 hPa 0,3 l/m 12,8 km/h (3 Bft) W-SW 255 0 min 0 lux 15,00 min 7,3 C 3,4 C
27.10.2008 04:54 7,7 C 7,5 C 98 % 1008 hPa 0,3 l/m 20,4 km/h (4 Bft) W-SW22.5 240 0 min 0 lux 15,00 min 7,4 C 0,2 C
27.10.2008 05:09 7,7 C 7,5 C 98 % 1008 hPa 0,3 l/m 11,6 km/h (2 Bft) SW22.5 230 0 min 0 lux 15,00 min 7,4 C 4,1 C
27.10.2008 05:24 7,6 C 7,4 C 98 % 1008 hPa 0,3 l/m 10,3 km/h (2 Bft) SW22.5 225 0 min 0 lux 15,00 min 7,3 C 4,8 C
27.10.2008 05:39 7,6 C 7,3 C 98 % 1007 hPa 0,6 l/m 6,8 km/h (2 Bft) SW22.5 220 0 min 0 lux 15,00 min 7,3 C 7,3 C
27.10.2008 05:54 7,5 C 7,3 C 98 % 1007 hPa 0,3 l/m 9,6 km/h (2 Bft) S-SW22.5 200 0 min 0 lux 15,00 min 7,2 C 5,1 C
27.10.2008 06:09 7,4 C 7,2 C 98 % 1007 hPa 0,6 l/m 8,3 km/h (2 Bft) S-SW22.5 195 0 min 0 lux 15,00 min 7,1 C 5,9 C
27.10.2008 06:24 7,4 C 7,2 C 98 % 1007 hPa 0,3 l/m 5,8 km/h (2 Bft) SW 215 0 min 0 lux 15,00 min 7,1 C 7,4 C
27.10.2008 06:39 7,4 C 7,1 C 98 % 1007 hPa 0,3 l/m 8,5 km/h (2 Bft) SW22.5 220 0 min 0 lux 15,00 min 7,1 C 5,8 C
27.10.2008 06:54 7,4 C 7,1 C 98 % 1007 hPa 0,3 l/m 11,1 km/h (2 Bft) SW45 235 0 min 0 lux 15,00 min 7,1 C 4,0 C
27.10.2008 07:09 7,4 C 7,1 C 98 % 1007 hPa 0,0 l/m 13,5 km/h (3 Bft) SW45 215 0 min 81 lux 0,00 min 7,1 C 2,7 C
27.10.2008 07:24 7,4 C 7,2 C 98 % 1007 hPa 0,3 l/m 12,9 km/h (3 Bft) S22.5 180 0 min 229 lux 15,00 min 7,1 C 3,0 C
27.10.2008 07:39 7,4 C 7,2 C 98 % 1007 hPa 0,3 l/m 9,2 km/h (2 Bft) S-SW22.5 210 0 min 450 lux 15,00 min 7,1 C 5,3 C
27.10.2008 07:59 7,4 C 7,2 C 98 % 1007 hPa 0,3 l/m 7,4 km/h (2 Bft) S-SW22.5 195 0 min 629 lux 20,00 min 7,1 C 6,6 C
27.10.2008 08:14 7,4 C 7,3 C 98 % 1007 hPa 0,6 l/m 10,0 km/h (2 Bft) W-SW22.5 250 0 min 1,09 klux 15,00 min 7,1 C 4,7 C
27.10.2008 08:29 7,6 C 7,3 C 98 % 1007 hPa 0,3 l/m 12,7 km/h (3 Bft) W22.5 270 0 min 1,50 klux 15,00 min 7,3 C 3,4 C
27.10.2008 08:45 7,3 C 7,1 C 97 % 1007 hPa 1,2 l/m 14,8 km/h (3 Bft) W45 270 0 min 2,86 klux 16,00 min 6,9 C 2,0 C
27.10.2008 09:00 7,2 C 6,9 C 97 % 1007 hPa 0,0 l/m 14,5 km/h (3 Bft) W22.5 265 0 min 3,57 klux 0,00 min 6,8 C 2,0 C
27.10.2008 09:15 7,2 C 6,9 C 97 % 1007 hPa 0,0 l/m 12,1 km/h (2 Bft) W-SW 255 0 min 5,43 klux 0,00 min 6,8 C 3,2 C
27.10.2008 09:30 7,3 C 6,9 C 97 % 1007 hPa 0,0 l/m 11,3 km/h (2 Bft) W-SW 255 0 min 7,16 klux 0,00 min 6,9 C 3,8 C
27.10.2008 09:44 7,3 C 6,9 C 97 % 1007 hPa 0,0 l/m 22,6 km/h (4 Bft) W45 270 0 min 7,19 klux 0,00 min 6,9 C -1,1 C
27.10.2008 09:59 7,2 C 6,6 C 95 % 1007 hPa 0,0 l/m 17,4 km/h (3 Bft) W22.5 265 0 min 9,7 klux 0,00 min 6,5 C 0,7 C
27.10.2008 10:14 7,2 C 6,7 C 95 % 1007 hPa 0,0 l/m 17,7 km/h (3 Bft) W22.5 265 0 min 9,4 klux 0,00 min 6,5 C 0,6 C
27.10.2008 10:29 7,2 C 6,6 C 95 % 1007 hPa 1,5 l/m 17,2 km/h (3 Bft) W22.5 270 0 min 8,88 klux 15,00 min 6,5 C 0,8 C
27.10.2008 10:45 7,4 C 6,8 C 95 % 1007 hPa 0,0 l/m 16,6 km/h (3 Bft) W-SW45 240 0 min 16,3 klux 0,00 min 6,7 C 1,3 C
27.10.2008 11:00 7,8 C 7,1 C 95 % 1007 hPa 0,0 l/m 16,2 km/h (3 Bft) W-SW22.5 250 0 min 17,2 klux 0,00 min 7,0 C 1,9 C
27.10.2008 11:15 8,0 C 7,6 C 95 % 1007 hPa 0,0 l/m 22,2 km/h (4 Bft) W-SW22.5 255 0 min 18,3 klux 0,00 min 7,2 C -0,0 C
27.10.2008 11:29 8,4 C 8,2 C 94 % 1007 hPa 0,0 l/m 15,3 km/h (3 Bft) W22.5 260 0 min 24,2 klux 0,00 min 7,5 C 3,1 C
27.10.2008 11:44 8,4 C 8,1 C 93 % 1007 hPa 0,0 l/m 21,8 km/h (4 Bft) W-SW22.5 255 0 min 17,4 klux 0,00 min 7,3 C 0,6 C
27.10.2008 11:59 8,0 C 7,8 C 93 % 1007 hPa 0,0 l/m 18,6 km/h (3 Bft) W22.5 260 0 min 8,03 klux 0,00 min 6,9 C 1,2 C
27.10.2008 12:14 8,0 C 7,7 C 93 % 1007 hPa 0,0 l/m 17,4 km/h (3 Bft) W-SW22.5 250 0 min 12,4 klux 0,00 min 6,9 C 1,7 C
27.10.2008 12:30 8,2 C 8,3 C 93 % 1006 hPa 0,0 l/m 17,1 km/h (3 Bft) W-SW45 240 0 min 54,6 klux 0,00 min 7,1 C 2,1 C
27.10.2008 12:38 8,9 C 10,1 C 92 % 1006 hPa 0,0 l/m 25,0 km/h (4 Bft) W-SW22.5 255 8 min 62,3 klux 0,00 min 7,7 C 0,3 C
27.10.2008 12:54 9,5 C 11,7 C 91 % 1006 hPa 0,0 l/m 21,9 km/h (4 Bft) W-SW45 255 16 min 71,5 klux 0,00 min 8,1 C 2,0 C
27.10.2008 13:09 10,4 C 14,9 C 87 % 1006 hPa 0,0 l/m 22,1 km/h (4 Bft) W-SW45 250 15 min 73,9 klux 0,00 min 8,3 C 3,2 C
27.10.2008 13:24 10,5 C 15,8 C 79 % 1006 hPa 0,0 l/m 23,0 km/h (4 Bft) W45 280 15 min 71,7 klux 0,00 min 7,0 C 3,0 C
27.10.2008 13:39 9,3 C 14,1 C 84 % 1006 hPa 0,0 l/m 20,3 km/h (4 Bft) W45 270 15 min 61,6 klux 0,00 min 6,7 C 2,3 C
27.10.2008 13:54 9,4 C 13,1 C 83 % 1006 hPa 0,0 l/m 25,0 km/h (4 Bft) W22.5 260 0 min 56,0 klux 0,00 min 6,7 C 1,0 C
27.10.2008 14:09 8,8 C 12,1 C 84 % 1006 hPa 0,0 l/m 18,4 km/h (3 Bft) W22.5 275 0 min 16,8 klux 0,00 min 6,2 C 2,3 C
27.10.2008 14:24 8,4 C 11,1 C 83 % 1006 hPa 0,0 l/m 18,0 km/h (3 Bft) W22.5 270 0 min 44,1 klux 0,00 min 5,7 C 2,0 C
27.10.2008 14:39 8,0 C 10,3 C 84 % 1006 hPa 0,0 l/m 16,1 km/h (3 Bft) W22.5 270 0 min 16,0 klux 0,00 min 5,5 C 2,2 C
27.10.2008 14:54 8,1 C 9,8 C 84 % 1006 hPa 0,0 l/m 17,4 km/h (3 Bft) W22.5 265 0 min 16,4 klux 0,00 min 5,6 C 1,8 C
27.10.2008 15:09 7,9 C 8,9 C 83 % 1006 hPa 0,0 l/m 19,5 km/h (3 Bft) W45 270 0 min 10,0 klux 0,00 min 5,2 C 0,8 C
27.10.2008 15:24 7,7 C 9,0 C 83 % 1006 hPa 0,0 l/m 15,5 km/h (3 Bft) W45 265 0 min 16,8 klux 0,00 min 5,0 C 2,1 C
27.10.2008 15:39 7,6 C 9,8 C 83 % 1006 hPa 0,0 l/m 15,7 km/h (3 Bft) W22.5 260 0 min 26,9 klux 0,00 min 4,9 C 1,9 C
27.10.2008 15:54 7,4 C 11,0 C 84 % 1006 hPa 0,0 l/m 13,2 km/h (3 Bft) W-SW22.5 255 0 min 24,4 klux 0,00 min 4,9 C 2,9 C
27.10.2008 16:09 7,2 C 10,6 C 85 % 1006 hPa 0,0 l/m 19,4 km/h (3 Bft) W-SW45 250 0 min 20,9 klux 0,00 min 4,9 C -0,1 C
27.10.2008 16:24 6,8 C 8,8 C 86 % 1006 hPa 0,0 l/m 13,2 km/h (3 Bft) W-SW22.5 250 0 min 14,7 klux 0,00 min 4,6 C 2,2 C
27.10.2008 16:39 6,2 C 7,4 C 87 % 1006 hPa 0,0 l/m 14,5 km/h (3 Bft) W-SW22.5 255 0 min 8,95 klux 0,00 min 4,2 C 0,8 C
27.10.2008 16:54 5,9 C 6,3 C 88 % 1006 hPa 0,0 l/m 2,8 km/h (1 Bft) W-SW 240 0 min 2,22 klux 0,00 min 4,1 C 5,9 C
27.10.2008 17:09 5,4 C 5,5 C 89 % 1006 hPa 0,0 l/m 0,0 km/h (0 Bft) W-SW 240 0 min 1,23 klux 0,00 min 3,7 C 5,4 C
27.10.2008 17:24 5,4 C 5,0 C 90 % 1006 hPa 0,0 l/m 0,0 km/h (0 Bft) W-SW 240 0 min 480 lux 0,00 min 3,9 C 5,4 C
27.10.2008 17:39 5,3 C 5,0 C 92 % 1006 hPa 0,0 l/m 6,0 km/h (2 Bft) NW22.5 320 0 min 68 lux 0,00 min 4,1 C 5,3 C
27.10.2008 17:54 5,3 C 4,8 C 92 % 1006 hPa 0,0 l/m 2,7 km/h (1 Bft) NW 315 0 min 4 lux 0,00 min 4,1 C 5,3 C
27.10.2008 18:09 5,2 C 4,7 C 92 % 1006 hPa 0,0 l/m 0,3 km/h (0 Bft) NW 315 0 min 0 lux 0,00 min 4,0 C 5,2 C
27.10.2008 18:24 5,2 C 4,8 C 93 % 1007 hPa 0,0 l/m 0,0 km/h (0 Bft) NW 315 0 min 0 lux 0,00 min 4,2 C 5,2 C
27.10.2008 18:39 5,2 C 4,8 C 93 % 1007 hPa 0,3 l/m 0,0 km/h (0 Bft) NW 315 0 min 0 lux 15,00 min 4,2 C 5,2 C
27.10.2008 18:54 5,2 C 4,6 C 93 % 1007 hPa 0,0 l/m 0,2 km/h (0 Bft) NW 315 0 min 0 lux 0,00 min 4,2 C 5,2 C
27.10.2008 19:09 4,9 C 4,3 C 93 % 1007 hPa 0,0 l/m 0,8 km/h (0 Bft) NW 315 0 min 0 lux 0,00 min 3,9 C 4,9 C
27.10.2008 19:29 4,7 C 4,1 C 93 % 1007 hPa 0,0 l/m 1,9 km/h (1 Bft) NW 315 0 min 0 lux 0,00 min 3,7 C 4,7 C
27.10.2008 19:44 4,7 C 4,1 C 94 % 1007 hPa 0,0 l/m 2,1 km/h (1 Bft) NW 315 0 min 0 lux 0,00 min 3,8 C 4,7 C
27.10.2008 19:59 4,5 C 3,8 C 94 % 1007 hPa 0,0 l/m 0,1 km/h (0 Bft) NW 315 0 min 0 lux 0,00 min 3,6 C 4,5 C
27.10.2008 20:14 4,3 C 3,7 C 94 % 1007 hPa 0,0 l/m 0,1 km/h (0 Bft) NW 315 0 min 0 lux 0,00 min 3,4 C 4,3 C
27.10.2008 20:30 4,3 C 3,5 C 94 % 1007 hPa 0,0 l/m 0,0 km/h (0 Bft) NW 315 0 min 0 lux 0,00 min 3,4 C 4,3 C
27.10.2008 20:45 4,1 C 3,2 C 94 % 1007 hPa 0,0 l/m 0,0 km/h (0 Bft) NW 315 0 min 0 lux 0,00 min 3,2 C 4,1 C
27.10.2008 21:00 3,9 C 3,2 C 95 % 1007 hPa 0,0 l/m 0,0 km/h (0 Bft) NW 315 0 min 0 lux 0,00 min 3,2 C 3,9 C
27.10.2008 21:14 3,8 C 3,1 C 95 % 1007 hPa 0,0 l/m 0,0 km/h (0 Bft) NW 315 0 min 0 lux 0,00 min 3,1 C 3,8 C
27.10.2008 21:29 3,8 C 3,1 C 95 % 1007 hPa 0,0 l/m 0,0 km/h (0 Bft) NW 315 0 min 0 lux 0,00 min 3,1 C 3,8 C
27.10.2008 21:44 3,6 C 3,1 C 96 % 1007 hPa 0,0 l/m 0,0 km/h (0 Bft) NW 315 0 min 0 lux 0,00 min 3,0 C 3,6 C
27.10.2008 21:59 3,7 C 3,3 C 96 % 1007 hPa 0,0 l/m 0,0 km/h (0 Bft) NW 315 0 min 0 lux 0,00 min 3,1 C 3,7 C
27.10.2008 22:15 3,8 C 3,3 C 96 % 1007 hPa 0,0 l/m 0,0 km/h (0 Bft) NW 315 0 min 0 lux 0,00 min 3,2 C 3,8 C
27.10.2008 22:30 3,7 C 3,0 C 96 % 1007 hPa 0,0 l/m 0,0 km/h (0 Bft) NW 315 0 min 0 lux 0,00 min 3,1 C 3,7 C
27.10.2008 22:45 3,6 C 2,9 C 96 % 1007 hPa 0,0 l/m 4,2 km/h (1 Bft) NW 315 0 min 0 lux 0,00 min 3,0 C 3,6 C
27.10.2008 22:59 3,6 C 3,0 C 96 % 1007 hPa 0,0 l/m 3,9 km/h (1 Bft) NW 320 0 min 0 lux 0,00 min 3,0 C 3,6 C
27.10.2008 23:14 3,5 C 2,5 C 96 % 1007 hPa 0,0 l/m 0,0 km/h (0 Bft) NW 320 0 min 0 lux 0,00 min 2,9 C 3,5 C
27.10.2008 23:29 3,1 C 2,0 C 95 % 1007 hPa 0,0 l/m 0,0 km/h (0 Bft) NW 320 0 min 0 lux 0,00 min 2,4 C 3,1 C
27.10.2008 23:44 3,0 C 2,0 C 96 % 1007 hPa 0,0 l/m 0,4 km/h (0 Bft) NW 320 0 min 0 lux 0,00 min 2,4 C 3,0 C
27.10.2008 23:59 2,9 C 2,0 C 97 % 1007 hPa 0,0 l/m 0,0 km/h (0 Bft) NW 320 0 min 0 lux 0,00 min 2,5 C 2,9 C
_ Min-Zeit 23:59 23:29 13:24 12:30 - 17:09 - - - - - 23:29 00:53
Minimum _ 2,9 C 2,0 C 79 % 1006 hPa - 0,0 km/h (0 Bft) - - - - - 2,4 C -2,0 C
_ Max-Zeit 13:24 13:24 00:38 00:08 03:54 00:53 - - 12:54 13:09 07:59 13:09 06:24
Maximum _ 10,5 C 15,8 C 98 % 1012 hPa 2,4 l/m 31,0 km/h
W-SW (5 Bft)
- - 16 min 73,9 klux 20,00 min 8,3 C 7,4 C
Durchschnitt _ 6,8 C 7,0 C 94 % 1008 hPa #12,3 l/m 12,1 km/h (2 Bft) W-SW - #1:09 h 8,79 klux #5:51 h 5,9 C 2,8 C